Time;durP1;ratioP1;P1;durP2;ratioP2;P2;SDS_P1;SDS_P2;PMS_P1;PMS_P2;Temp;Humidity;BMP_temperature;BMP_pressure;BME280_temperature;BME280_humidity;BME280_pressure;Samples;Min_cycle;Max_cycle;Signal;HPM_P1;HPM_P2
2022/11/19 00:01:39;;;;;;;24.40;15.70;;;;;;;-2.96;96.61;95750.44;105253;1295;22464;-77
2022/11/19 00:04:10;;;;;;;21.60;14.90;;;;;;;-2.97;96.51;95752.23;105215;1296;23541;-77
2022/11/19 00:06:44;;;;;;;22.90;15.30;;;;;;;-3.01;96.45;95754.47;104352;1303;1139225;-77
2022/11/19 00:09:15;;;;;;;20.60;13.50;;;;;;;-3.01;96.40;95751.40;105225;1291;23705;-77
2022/11/19 00:14:35;;;;;;;23.30;15.20;;;;;;;-3.02;96.45;95754.76;105170;1298;26566;-77
2022/11/19 00:17:06;;;;;;;21.20;14.80;;;;;;;-3.02;96.41;95760.66;105186;1291;22642;-77
2022/11/19 00:19:38;;;;;;;20.60;13.40;;;;;;;-3.04;96.26;95764.80;105216;1295;22481;-77
2022/11/19 00:22:12;;;;;;;21.40;14.30;;;;;;;-3.05;96.30;95766.37;105145;1304;22610;-77
2022/11/19 00:24:44;;;;;;;19.50;13.70;;;;;;;-3.05;96.35;95770.00;105175;1289;23676;-77
2022/11/19 00:27:17;;;;;;;20.60;14.30;;;;;;;-3.07;96.18;95770.17;105241;1303;22515;-77
2022/11/19 00:29:50;;;;;;;18.90;12.90;;;;;;;-3.10;95.94;95764.77;105212;1303;22528;-77
2022/11/19 00:32:22;;;;;;;19.00;13.00;;;;;;;-3.12;95.89;95756.56;105358;1297;22537;-77
2022/11/19 00:34:55;;;;;;;21.00;15.00;;;;;;;-3.13;95.80;95744.65;105288;1286;22465;-77
2022/11/19 00:37:26;;;;;;;19.20;13.60;;;;;;;-3.12;96.02;95746.75;105181;1303;25474;-77
2022/11/19 00:39:57;;;;;;;17.90;12.70;;;;;;;-3.11;95.96;95750.05;105189;1288;22515;-77
2022/11/19 00:42:29;;;;;;;20.00;13.70;;;;;;;-3.11;95.92;95756.27;105139;1282;22472;-77
2022/11/19 00:45:02;;;;;;;17.80;11.70;;;;;;;-3.11;95.94;95754.88;105230;1304;25235;-77
2022/11/19 00:47:33;;;;;;;18.70;13.50;;;;;;;-3.11;95.84;95758.39;105070;1292;22467;-77
2022/11/19 00:50:06;;;;;;;20.40;13.40;;;;;;;-3.12;96.02;95764.02;105196;1303;22516;-77
2022/11/19 00:52:37;;;;;;;20.60;14.30;;;;;;;-3.12;95.89;95764.85;105339;1302;22689;-77
2022/11/19 00:55:10;;;;;;;19.20;13.40;;;;;;;-3.09;95.98;95769.31;105214;1288;22464;-77
2022/11/19 00:57:41;;;;;;;16.80;11.70;;;;;;;-3.08;95.88;95766.88;105376;1303;22466;-77
2022/11/19 01:00:15;;;;;;;17.40;12.70;;;;;;;-3.08;95.99;95765.00;105202;1303;25730;-77
2022/11/19 01:02:46;;;;;;;20.30;13.10;;;;;;;-3.09;95.87;95776.17;105286;1302;22699;-77
2022/11/19 01:05:17;;;;;;;17.90;12.80;;;;;;;-3.14;95.49;95773.01;105181;1304;23545;-77
2022/11/19 01:07:52;;;;;;;17.50;12.40;;;;;;;-3.14;95.39;95768.67;105070;1304;22457;-77
2022/11/19 01:10:23;;;;;;;17.40;12.20;;;;;;;-3.11;95.53;95766.24;105204;1304;22797;-77
2022/11/19 01:15:43;;;;;;;18.00;12.40;;;;;;;-3.07;95.54;95779.91;105197;1304;22506;-77
2022/11/19 01:18:14;;;;;;;17.80;12.20;;;;;;;-3.04;95.52;95780.35;105159;1288;22474;-77
2022/11/19 01:20:46;;;;;;;18.60;12.70;;;;;;;-3.02;95.70;95776.73;105192;1296;23984;-77
2022/11/19 01:23:20;;;;;;;20.30;11.70;;;;;;;-3.02;95.62;95773.90;105199;1297;22474;-77
2022/11/19 01:25:51;;;;;;;20.10;13.70;;;;;;;-2.98;95.38;95775.17;105167;1305;22522;-77
2022/11/19 01:28:25;;;;;;;20.50;13.40;;;;;;;-2.98;95.55;95770.52;105189;1294;22936;-77
2022/11/19 01:30:57;;;;;;;19.50;12.80;;;;;;;-2.95;95.72;95772.93;105352;1289;25058;-77
2022/11/19 01:33:28;;;;;;;21.40;14.30;;;;;;;-2.98;95.47;95780.58;105382;1287;22465;-77
2022/11/19 01:36:02;;;;;;;21.40;14.60;;;;;;;-3.00;95.50;95776.73;105184;1281;22563;-77
2022/11/19 01:38:36;;;;;;;19.60;12.60;;;;;;;-2.98;95.64;95763.45;105137;1288;22496;-77
2022/11/19 01:41:08;;;;;;;20.30;14.00;;;;;;;-3.08;95.18;95754.66;105233;1303;22465;-77
2022/11/19 01:43:45;;;;;;;18.40;12.90;;;;;;;-3.18;95.03;95771.59;105175;1294;22513;-77
2022/11/19 01:46:19;;;;;;;18.40;13.20;;;;;;;-3.14;95.42;95777.45;105153;1297;24254;-77
2022/11/19 01:48:55;;;;;;;20.00;13.50;;;;;;;-3.16;95.36;95792.13;105295;1281;26412;-77
2022/11/19 01:51:30;;;;;;;22.10;14.50;;;;;;;-3.26;95.28;95804.34;105187;1288;25405;-77
2022/11/19 01:54:05;;;;;;;20.80;14.20;;;;;;;-3.34;95.30;95800.73;105180;1294;22469;-77
2022/11/19 01:56:37;;;;;;;19.90;13.30;;;;;;;-3.31;95.66;95794.85;105217;1292;23714;-77
2022/11/19 01:59:12;;;;;;;19.80;14.30;;;;;;;-3.32;95.50;95803.44;105384;1303;22486;-77
2022/11/19 02:01:45;;;;;;;21.00;13.70;;;;;;;-3.41;95.38;95804.80;105411;1295;22461;-77
2022/11/19 02:04:18;;;;;;;20.80;14.60;;;;;;;-3.46;95.28;95800.50;105416;1295;22481;-77
2022/11/19 02:06:49;;;;;;;23.20;14.90;;;;;;;-3.47;95.41;95805.48;105177;1287;22685;-77
2022/11/19 02:09:21;;;;;;;22.00;15.60;;;;;;;-3.44;95.63;95805.30;105197;1303;22475;-77
2022/11/19 02:12:12;;;;;;;24.50;15.70;;;;;;;-3.41;95.74;95802.45;105219;1294;22494;-77
2022/11/19 02:15:09;;;;;;;44.30;25.70;;;;;;;-3.40;95.78;95819.70;105188;1288;22516;-77
2022/11/19 02:17:58;;;;;;;36.60;21.10;;;;;;;-3.35;95.86;95832.36;105148;1281;25398;-77
2022/11/19 02:20:49;;;;;;;25.00;16.40;;;;;;;-3.40;95.83;95832.10;105186;1288;23161;-77
2022/11/19 02:23:51;;;;;;;23.30;15.10;;;;;;;-3.45;95.73;95842.19;105181;1295;22486;-77
2022/11/19 02:26:58;;;;;;;25.80;14.50;;;;;;;-3.52;95.66;95838.43;105100;1303;22567;-77
2022/11/19 02:30:07;;;;;;;21.50;15.00;;;;;;;-3.57;95.76;95855.81;105220;1288;22481;-77
2022/11/19 02:32:49;;;;;;;32.00;18.30;;;;;;;-3.57;95.99;95848.83;105227;1295;22494;-77
2022/11/19 02:35:39;;;;;;;29.80;19.00;;;;;;;-3.61;96.02;95844.10;105216;1295;24175;-77
2022/11/19 02:38:21;;;;;;;33.90;19.90;;;;;;;-3.62;96.18;95856.52;105181;1279;22453;-77
2022/11/19 02:40:56;;;;;;;21.70;14.60;;;;;;;-3.60;96.10;95859.89;105248;1274;26578;-77
2022/11/19 02:43:35;;;;;;;26.70;15.60;;;;;;;-3.61;96.13;95858.66;105215;1288;22479;-77
2022/11/19 02:46:10;;;;;;;23.50;16.40;;;;;;;-3.63;96.00;95858.03;105241;1289;22494;-77
2022/11/19 02:48:43;;;;;;;22.60;15.10;;;;;;;-3.63;96.11;95857.72;105419;1294;32826;-77
2022/11/19 02:51:18;;;;;;;21.50;14.50;;;;;;;-3.61;96.23;95859.70;105365;1303;22541;-77
2022/11/19 02:53:51;;;;;;;24.50;16.20;;;;;;;-3.57;96.34;95856.96;105196;1287;22517;-77
2022/11/19 02:56:48;;;;;;;23.20;15.30;;;;;;;-3.58;96.38;95855.21;105156;1296;22489;-76
2022/11/19 03:05:16;;;;;;;28.70;19.50;;;;;;;-3.58;96.52;95844.09;105213;1306;22491;-76
2022/11/19 03:07:50;;;;;;;38.80;27.60;;;;;;;-3.56;96.70;95853.45;105193;1306;22648;-77
2022/11/19 03:10:25;;;;;;;67.00;45.80;;;;;;;-3.52;96.87;95860.77;105233;1304;22488;-76
2022/11/19 03:16:40;;;;;;;31.60;21.70;;;;;;;-3.46;97.00;95864.91;105169;1288;26436;-76
2022/11/19 03:18:55;;;;;;;25.50;16.80;;;;;;;-3.32;97.20;95886.88;105215;1292;27022;-76
2022/11/19 03:21:31;;;;;;;25.60;17.30;;;;;;;-3.27;97.24;95889.63;105208;1289;22462;-77
2022/11/19 03:24:08;;;;;;;23.70;15.80;;;;;;;-3.26;97.08;95889.98;105265;1295;22490;-77
2022/11/19 03:26:46;;;;;;;23.90;16.00;;;;;;;-3.22;97.01;95889.69;105249;1296;24240;-76
2022/11/19 03:29:17;;;;;;;23.70;15.90;;;;;;;-3.18;96.99;95882.20;105290;1279;22488;-76
2022/11/19 03:31:57;;;;;;;21.50;14.90;;;;;;;-3.16;96.87;95874.29;105332;1295;22465;-76
2022/11/19 03:34:31;;;;;;;14.20;10.10;;;;;;;-3.15;96.80;95872.33;105288;1278;25440;-76
2022/11/19 03:37:05;;;;;;;17.90;12.00;;;;;;;-3.14;96.56;95874.59;105143;1287;25415;-76
2022/11/19 03:39:40;;;;;;;21.70;14.40;;;;;;;-3.17;96.14;95883.48;105222;1291;23798;-76
2022/11/19 03:42:16;;;;;;;26.70;16.30;;;;;;;-3.15;96.22;95877.02;105159;1303;24247;-76
2022/11/19 03:44:51;;;;;;;18.70;12.90;;;;;;;-3.14;96.09;95871.55;105218;1294;22493;-76
2022/11/19 03:47:31;;;;;;;19.10;13.10;;;;;;;-3.11;96.14;95872.61;105155;1303;24424;-76
2022/11/19 03:50:07;;;;;;;19.20;12.60;;;;;;;-3.09;96.11;95882.98;105188;1303;22488;-76
2022/11/19 03:52:38;;;;;;;19.00;12.70;;;;;;;-3.09;96.06;95886.64;105177;1302;22528;-76
2022/11/19 03:55:10;;;;;;;16.50;11.90;;;;;;;-3.11;95.94;95890.36;105221;1297;24075;-76
2022/11/19 03:57:42;;;;;;;16.70;12.10;;;;;;;-3.13;95.58;95892.52;105170;1303;24248;-77
2022/11/19 04:00:17;;;;;;;17.30;12.20;;;;;;;-3.13;95.68;95901.02;105244;1302;25365;-77
2022/11/19 04:02:48;;;;;;;18.10;12.90;;;;;;;-3.13;95.75;95907.08;105250;1295;22457;-76
2022/11/19 04:05:19;;;;;;;17.20;11.40;;;;;;;-3.13;95.70;95903.10;105206;1301;22527;-76
2022/11/19 04:07:54;;;;;;;16.80;12.10;;;;;;;-3.14;95.53;95901.42;105170;1303;24226;-77
2022/11/19 04:10:25;;;;;;;16.60;12.40;;;;;;;-3.14;95.52;95902.03;105182;1303;22505;-77
2022/11/19 04:12:56;;;;;;;18.40;12.80;;;;;;;-3.16;95.45;95910.38;105253;1303;22472;-76
2022/11/19 04:15:28;;;;;;;16.30;11.30;;;;;;;-3.18;95.28;95916.70;105191;1279;22515;-76
2022/11/19 04:17:59;;;;;;;16.90;11.80;;;;;;;-3.21;95.07;95919.71;105137;1303;22472;-76
2022/11/19 04:20:30;;;;;;;15.80;11.20;;;;;;;-3.22;95.10;95927.30;105200;1304;24248;-76
2022/11/19 04:23:04;;;;;;;16.10;11.20;;;;;;;-3.23;94.97;95927.61;105166;1304;25029;-77
2022/11/19 04:25:35;;;;;;;14.10;9.60;;;;;;;-3.26;94.43;95932.36;105169;1304;22469;-76
2022/11/19 04:28:06;;;;;;;14.70;10.30;;;;;;;-3.30;94.17;95936.34;105091;1304;22506;-76
2022/11/19 04:30:38;;;;;;;15.20;10.80;;;;;;;-3.32;94.15;95933.52;105193;1288;23987;-76
2022/11/19 04:33:09;;;;;;;15.00;10.30;;;;;;;-3.35;94.22;95930.83;105118;1304;22471;-77
2022/11/19 04:35:44;;;;;;;15.30;10.70;;;;;;;-3.38;94.20;95932.02;105177;1295;22474;-76
2022/11/19 04:38:17;;;;;;;16.80;11.40;;;;;;;-3.37;94.20;95927.82;105264;1306;22513;-76
2022/11/19 04:40:48;;;;;;;15.20;11.00;;;;;;;-3.36;94.24;95928.21;105201;1304;22472;-76
2022/11/19 04:43:19;;;;;;;16.00;11.50;;;;;;;-3.35;94.32;95937.77;105174;1304;22485;-76
2022/11/19 04:45:52;;;;;;;14.70;10.80;;;;;;;-3.34;94.36;95938.95;105189;1304;22477;-76
2022/11/19 04:48:23;;;;;;;16.00;11.60;;;;;;;-3.32;94.50;95953.27;105133;1280;25710;-77
2022/11/19 04:50:55;;;;;;;15.80;12.10;;;;;;;-3.33;94.59;95956.30;105153;1304;22507;-77
2022/11/19 04:53:26;;;;;;;17.50;12.00;;;;;;;-3.31;94.78;95960.27;105165;1297;22523;-77
2022/11/19 04:55:57;;;;;;;17.60;11.80;;;;;;;-3.29;94.66;95962.48;105181;1287;23165;-77
2022/11/19 04:58:30;;;;;;;25.30;15.00;;;;;;;-3.27;94.68;95967.06;105140;1296;26204;-77
2022/11/19 05:01:01;;;;;;;20.00;13.10;;;;;;;-3.25;94.77;95964.69;105103;1304;26543;-77
2022/11/19 05:03:35;;;;;;;27.30;18.00;;;;;;;-3.25;94.67;95970.91;105218;1290;22530;-76
2022/11/19 05:06:07;;;;;;;21.50;15.40;;;;;;;-3.27;94.64;95977.06;105185;1291;22470;-76
2022/11/19 05:08:39;;;;;;;26.80;18.50;;;;;;;-3.32;94.67;95984.23;105168;1305;34406;-76
2022/11/19 05:11:10;;;;;;;20.00;14.40;;;;;;;-3.32;94.59;95985.20;105193;1304;22498;-77
2022/11/19 05:13:41;;;;;;;20.40;15.00;;;;;;;-3.36;94.59;95982.42;105116;1299;23895;-77
2022/11/19 05:16:13;;;;;;;20.70;14.70;;;;;;;-3.36;94.70;95989.68;105154;1290;25382;-76
2022/11/19 05:18:44;;;;;;;18.50;12.80;;;;;;;-3.34;94.80;95997.57;105224;1282;22470;-76
2022/11/19 05:21:15;;;;;;;17.30;12.60;;;;;;;-3.38;94.66;96004.64;105200;1295;22501;-76
2022/11/19 05:23:46;;;;;;;20.50;13.40;;;;;;;-3.46;94.43;96005.27;105234;1281;22470;-76
2022/11/19 05:26:17;;;;;;;17.40;12.90;;;;;;;-3.51;94.43;96004.21;105163;1298;22759;-76
2022/11/19 05:28:49;;;;;;;20.10;14.50;;;;;;;-3.58;94.25;96005.06;105142;1306;22472;-76
2022/11/19 05:31:20;;;;;;;21.60;16.50;;;;;;;-3.63;94.62;96012.41;105142;1305;22474;-76
2022/11/19 05:33:51;;;;;;;19.30;14.60;;;;;;;-3.66;94.71;96022.70;105178;1298;22659;-76
2022/11/19 05:36:22;;;;;;;20.80;14.30;;;;;;;-3.67;94.79;96027.30;105157;1304;25465;-76
2022/11/19 05:38:53;;;;;;;20.20;13.80;;;;;;;-3.65;95.00;96031.92;105150;1306;22510;-76
2022/11/19 05:41:25;;;;;;;19.70;13.70;;;;;;;-3.63;95.28;96039.20;105134;1297;22468;-76
2022/11/19 05:43:56;;;;;;;21.40;15.10;;;;;;;-3.58;95.44;96041.69;105191;1288;22588;-76
2022/11/19 05:46:27;;;;;;;20.10;14.80;;;;;;;-3.57;95.46;96041.80;105088;1289;22582;-76
2022/11/19 05:48:58;;;;;;;21.50;16.10;;;;;;;-3.56;95.59;96038.64;105195;1304;26412;-76
2022/11/19 05:51:30;;;;;;;22.50;15.70;;;;;;;-3.54;95.68;96039.80;105187;1298;24435;-76
2022/11/19 05:54:01;;;;;;;21.90;15.00;;;;;;;-3.52;95.61;96040.52;105197;1296;22471;-76
2022/11/19 05:56:32;;;;;;;21.00;14.50;;;;;;;-3.53;95.79;96048.23;105167;1305;22436;-76
2022/11/19 05:59:04;;;;;;;21.90;14.70;;;;;;;-3.52;95.66;96053.15;105184;1282;22463;-76
2022/11/19 06:01:35;;;;;;;20.50;15.10;;;;;;;-3.48;95.91;96053.52;105214;1288;22474;-76
2022/11/19 06:04:06;;;;;;;19.90;14.80;;;;;;;-3.43;95.91;96062.29;105129;1298;22585;-76
2022/11/19 06:06:38;;;;;;;23.70;18.00;;;;;;;-3.39;96.08;96063.27;105166;1304;23899;-75
2022/11/19 06:09:09;;;;;;;26.70;20.80;;;;;;;-3.37;95.87;96065.68;105198;1291;22475;-76
2022/11/19 06:11:50;;;;;;;30.00;22.50;;;;;;;-3.37;95.59;96071.17;105151;1276;22506;-76
2022/11/19 06:14:21;;;;;;;;;;;;;;;-3.38;95.52;96075.16;105202;1304;22615;-76
2022/11/19 06:16:54;;;;;;;20.30;13.40;;;;;;;-3.49;95.13;96087.30;105175;1284;22475;-76
2022/11/19 06:19:26;;;;;;;20.50;14.00;;;;;;;-3.55;94.96;96089.73;105161;1291;22470;-76
2022/11/19 06:21:57;;;;;;;19.50;14.00;;;;;;;-3.57;95.08;96097.00;105185;1305;23218;-76
2022/11/19 06:24:30;;;;;;;20.10;14.10;;;;;;;-3.60;95.20;96097.05;105190;1296;22459;-76
2022/11/19 06:27:01;;;;;;;20.80;15.00;;;;;;;-3.64;95.09;96099.81;105111;1305;22516;-76
2022/11/19 06:29:34;;;;;;;18.70;13.50;;;;;;;-3.62;95.25;96102.32;105211;1298;22907;-77
2022/11/19 06:32:06;;;;;;;21.90;15.40;;;;;;;-3.60;95.39;96101.07;105200;1305;22457;-77
2022/11/19 06:34:38;;;;;;;21.30;15.60;;;;;;;-3.59;95.38;96108.41;105171;1304;24262;-77
2022/11/19 06:37:11;;;;;;;21.10;15.10;;;;;;;-3.55;95.68;96115.05;105109;1306;22460;-76
2022/11/19 06:39:46;;;;;;;21.30;15.40;;;;;;;-3.51;95.74;96113.70;105201;1304;27553;-76
2022/11/19 06:42:36;;;;;;;20.10;15.10;;;;;;;-3.49;95.61;96108.04;105221;1285;23949;-76
2022/11/19 06:45:11;;;;;;;20.40;14.00;;;;;;;-3.50;95.38;96107.56;105184;1284;22496;-77
2022/11/19 06:47:47;;;;;;;20.90;14.90;;;;;;;-3.53;95.20;96111.13;105224;1303;24227;-76
2022/11/19 06:50:19;;;;;;;20.20;13.80;;;;;;;-3.50;95.40;96116.38;105142;1284;23811;-76
2022/11/19 06:52:53;;;;;;;19.60;13.90;;;;;;;-3.44;95.60;96123.77;105124;1291;22470;-76
2022/11/19 06:55:24;;;;;;;19.50;14.40;;;;;;;-3.38;95.78;96131.22;105171;1304;22519;-77
2022/11/19 06:58:01;;;;;;;18.10;13.50;;;;;;;-3.32;95.87;96138.77;105158;1298;22480;-76
2022/11/19 07:00:34;;;;;;;18.20;13.90;;;;;;;-3.26;95.85;96144.42;105187;1304;22470;-76
2022/11/19 07:03:06;;;;;;;20.40;15.00;;;;;;;-3.21;95.66;96151.20;105160;1304;25522;-77
2022/11/19 07:05:38;;;;;;;23.10;16.90;;;;;;;-3.18;95.65;96147.16;105198;1304;24434;-76
2022/11/19 07:08:09;;;;;;;22.50;16.80;;;;;;;-3.15;95.40;96148.31;105125;1302;22474;-77
2022/11/19 07:10:42;;;;;;;19.80;14.90;;;;;;;-3.10;95.44;96148.23;105218;1295;22463;-77
2022/11/19 07:13:13;;;;;;;18.30;13.70;;;;;;;-3.04;95.45;96150.67;105240;1285;22485;-77
2022/11/19 07:15:47;;;;;;;21.70;15.70;;;;;;;-3.01;95.24;96151.70;105193;1303;22493;-77
2022/11/19 07:18:19;;;;;;;20.20;14.30;;;;;;;-3.00;95.03;96152.13;105196;1278;22480;-77
2022/11/19 07:20:50;;;;;;;18.40;13.60;;;;;;;-2.99;94.82;96155.96;105203;1284;22513;-77
2022/11/19 07:23:22;;;;;;;22.20;14.80;;;;;;;-3.02;94.62;96162.44;105214;1291;25477;-77
2022/11/19 07:26:00;;;;;;;19.10;14.00;;;;;;;-3.08;94.29;96172.07;105207;1294;22491;-77
2022/11/19 07:28:34;;;;;;;20.50;15.00;;;;;;;-3.18;94.05;96173.36;105145;1303;24661;-77
2022/11/19 07:31:08;;;;;;;21.20;15.50;;;;;;;-3.27;93.70;96176.00;105212;1278;22479;-77
2022/11/19 07:33:40;;;;;;;20.60;16.00;;;;;;;-3.35;93.57;96175.95;105200;1288;22477;-77
2022/11/19 07:36:16;;;;;;;18.30;13.60;;;;;;;-3.41;93.72;96173.66;105194;1303;26584;-77
2022/11/19 07:38:49;;;;;;;19.00;15.20;;;;;;;-3.46;93.55;96171.33;105176;1306;22469;-77
2022/11/19 07:44:09;;;;;;;18.20;14.50;;;;;;;-3.46;93.62;96176.55;105118;1297;25256;-77
2022/11/19 07:46:41;;;;;;;18.40;14.40;;;;;;;-3.42;93.71;96176.34;105155;1304;22477;-77
2022/11/19 07:49:15;;;;;;;18.00;14.30;;;;;;;-3.35;93.92;96173.52;105169;1304;22735;-77
2022/11/19 07:51:46;;;;;;;21.60;15.70;;;;;;;-3.31;93.86;96174.74;105175;1303;23893;-77
2022/11/19 07:54:18;;;;;;;18.60;13.90;;;;;;;-3.31;93.63;96179.53;105211;1290;25196;-77
2022/11/19 07:56:49;;;;;;;22.20;16.00;;;;;;;-3.34;93.41;96184.84;105195;1305;22470;-77
2022/11/19 07:59:21;;;;;;;20.20;14.80;;;;;;;-3.37;93.32;96186.11;105201;1306;25494;-77
2022/11/19 08:01:55;;;;;;;21.40;15.50;;;;;;;-3.40;93.06;96190.09;105139;1284;24257;-77
2022/11/19 08:04:28;;;;;;;18.00;14.30;;;;;;;-3.40;92.90;96190.48;105208;1304;22499;-77
2022/11/19 08:07:01;;;;;;;22.00;15.50;;;;;;;-3.38;93.08;96189.34;105181;1306;22469;-77
2022/11/19 08:09:36;;;;;;;20.10;14.90;;;;;;;-3.36;92.97;96190.46;105183;1282;22488;-77
2022/11/19 08:12:08;;;;;;;21.20;15.60;;;;;;;-3.34;93.23;96194.41;105188;1278;23310;-77
2022/11/19 08:14:39;;;;;;;18.30;13.30;;;;;;;-3.30;93.28;96189.85;105218;1302;24292;-77
2022/11/19 08:20:00;;;;;;;17.60;12.30;;;;;;;-3.20;93.20;96190.13;105146;1275;22474;-77
2022/11/19 08:22:32;;;;;;;17.50;13.90;;;;;;;-3.20;93.14;96188.69;105197;1304;22925;-77
2022/11/19 08:25:05;;;;;;;20.10;14.20;;;;;;;-3.24;92.78;96189.52;105197;1288;22502;-77
2022/11/19 08:27:36;;;;;;;20.10;14.60;;;;;;;-3.29;92.63;96196.98;105260;1295;23527;-77
2022/11/19 08:30:10;;;;;;;20.90;13.70;;;;;;;-3.27;92.70;96197.05;105315;1303;25221;-77
2022/11/19 08:32:41;;;;;;;18.60;14.40;;;;;;;-3.23;92.61;96200.10;105303;1294;22464;-77
2022/11/19 08:35:12;;;;;;;18.30;14.00;;;;;;;-3.20;92.49;96196.15;105195;1300;22724;-77
2022/11/19 08:37:48;;;;;;;17.60;13.70;;;;;;;-3.15;92.53;96196.44;105184;1297;23533;-77
2022/11/19 08:40:20;;;;;;;16.30;13.00;;;;;;;-3.08;92.52;96193.98;105156;1306;22734;-77
2022/11/19 08:43:01;;;;;;;18.00;13.80;;;;;;;-3.00;92.58;96193.67;105165;1304;22592;-77
2022/11/19 08:45:35;;;;;;;18.80;13.80;;;;;;;-2.92;92.64;96195.58;105169;1305;22482;-77
2022/11/19 08:48:09;;;;;;;19.70;14.50;;;;;;;-2.91;92.43;96194.70;105151;1304;22456;-77
2022/11/19 08:50:43;;;;;;;18.80;13.80;;;;;;;-2.90;92.00;96197.04;105181;1304;22523;-77
2022/11/19 08:53:14;;;;;;;20.00;14.90;;;;;;;-2.92;91.99;96199.41;105140;1298;23938;-77
2022/11/19 08:55:52;;;;;;;19.10;14.80;;;;;;;-2.86;91.92;96199.58;105230;1304;26559;-77
2022/11/19 08:58:23;;;;;;;18.90;14.00;;;;;;;-2.69;92.48;96199.65;105134;1306;24292;-77
2022/11/19 09:00:58;;;;;;;18.70;13.00;;;;;;;-2.51;92.69;96200.35;105193;1306;22535;-77
2022/11/19 09:03:29;;;;;;;18.70;13.80;;;;;;;-2.48;92.19;96206.05;105206;1304;22935;-77
2022/11/19 09:06:01;;;;;;;19.40;14.20;;;;;;;-2.49;91.60;96207.73;105176;1304;22463;-77
2022/11/19 09:08:33;;;;;;;17.00;13.30;;;;;;;-2.42;91.79;96208.65;105132;1285;22466;-77
2022/11/19 09:11:10;;;;;;;18.20;13.80;;;;;;;-2.36;91.50;96212.19;105192;1304;22491;-77
2022/11/19 09:13:45;;;;;;;17.80;12.80;;;;;;;-2.28;91.40;96215.17;105084;1306;22613;-77
2022/11/19 09:16:18;;;;;;;18.50;14.60;;;;;;;-2.24;90.90;96213.17;105163;1305;22473;-77
2022/11/19 09:18:50;;;;;;;17.60;14.20;;;;;;;-2.14;90.97;96209.91;105176;1281;22483;-77
2022/11/19 09:21:21;;;;;;;20.50;13.70;;;;;;;-1.97;91.56;96209.31;105220;1306;24251;-77
2022/11/19 09:23:53;;;;;;;21.00;14.60;;;;;;;-1.93;91.12;96220.20;105198;1295;22562;-77
2022/11/19 09:26:24;;;;;;;18.20;13.00;;;;;;;-2.03;90.32;96219.97;105141;1295;22493;-78
2022/11/19 09:28:55;;;;;;;18.40;13.80;;;;;;;-2.17;89.91;96228.42;105171;1306;23730;-77
2022/11/19 09:31:26;;;;;;;19.70;14.90;;;;;;;-2.19;90.20;96231.99;105168;1288;25450;-77
2022/11/19 09:34:01;;;;;;;17.90;13.60;;;;;;;-2.20;89.90;96234.44;105130;1291;22547;-77
2022/11/19 09:36:32;;;;;;;18.20;13.50;;;;;;;-2.29;89.37;96236.04;105124;1275;25340;-77
2022/11/19 09:39:04;;;;;;;18.40;14.70;;;;;;;-2.36;88.87;96231.04;105127;1306;22787;-77
2022/11/19 09:41:47;;;;;;;17.30;13.40;;;;;;;-2.48;88.38;96228.64;105188;1306;22476;-77
2022/11/19 09:44:33;;;;;;;19.40;14.70;;;;;;;-2.56;88.63;96229.17;105215;1305;25366;-77
2022/11/19 09:47:24;;;;;;;17.50;13.50;;;;;;;-2.55;88.95;96234.25;105165;1281;25245;-77
2022/11/19 09:50:06;;;;;;;18.90;13.70;;;;;;;-2.41;89.67;96236.20;105207;1297;22462;-77
2022/11/19 09:52:44;;;;;;;16.80;13.20;;;;;;;-2.25;89.70;96240.54;105127;1281;26621;-77
2022/11/19 09:55:18;;;;;;;;;;;;;;;-2.16;89.62;96241.05;105204;1282;23699;-77
2022/11/19 09:57:53;;;;;;;16.40;12.40;;;;;;;-2.14;89.27;96243.23;105123;1304;22673;-77
2022/11/19 10:00:27;;;;;;;19.20;13.50;;;;;;;-2.08;89.24;96239.23;105211;1301;22620;-77
2022/11/19 10:03:02;;;;;;;18.10;13.70;;;;;;;-1.98;89.41;96232.69;105210;1289;22481;-77
2022/11/19 10:05:42;;;;;;;17.30;13.40;;;;;;;-1.93;89.06;96233.03;105230;1288;22484;-77
2022/11/19 10:08:32;;;;;;;17.40;14.20;;;;;;;-1.90;89.20;96224.41;105304;1296;22462;-77
2022/11/19 10:11:17;;;;;;;19.60;14.80;;;;;;;-1.77;89.78;96228.41;105248;1284;26561;-77
2022/11/19 10:13:58;;;;;;;17.90;14.20;;;;;;;-1.58;90.33;96225.03;105213;1288;22591;-77
2022/11/19 10:16:43;;;;;;;18.20;13.70;;;;;;;-1.43;90.17;96229.09;105164;1303;22486;-77
2022/11/19 10:19:29;;;;;;;18.20;12.80;;;;;;;-1.38;89.57;96231.02;105143;1288;22539;-78
2022/11/19 10:22:09;;;;;;;18.00;13.20;;;;;;;-1.34;89.56;96232.66;105240;1304;22465;-77
2022/11/19 10:24:50;;;;;;;18.30;13.20;;;;;;;-1.27;89.25;96237.54;105204;1291;22470;-78
2022/11/19 10:27:37;;;;;;;18.10;13.20;;;;;;;-1.19;89.03;96243.02;105126;1306;22488;-78
2022/11/19 10:30:16;;;;;;;20.10;12.90;;;;;;;-1.15;88.86;96246.46;105153;1298;22617;-78
2022/11/19 10:32:58;;;;;;;17.60;14.10;;;;;;;-1.13;88.85;96245.85;105209;1306;24961;-78
2022/11/19 10:35:33;;;;;;;18.50;13.30;;;;;;;-1.08;88.66;96243.86;105189;1291;26585;-78
2022/11/19 10:38:10;;;;;;;22.40;16.10;;;;;;;-1.02;88.63;96242.11;105190;1303;24788;-77
2022/11/19 10:40:45;;;;;;;20.30;14.50;;;;;;;-0.98;88.28;96240.48;105205;1291;25352;-78
2022/11/19 10:43:24;;;;;;;19.50;14.00;;;;;;;-1.02;87.58;96244.79;105178;1306;23935;-77
2022/11/19 10:45:59;;;;;;;19.90;14.80;;;;;;;-1.01;87.76;96238.09;105231;1304;22502;-78
2022/11/19 10:48:40;;;;;;;19.90;15.80;;;;;;;-0.94;87.65;96236.13;105152;1293;23761;-77
2022/11/19 10:51:20;;;;;;;19.70;14.60;;;;;;;-0.87;87.65;96235.69;105128;1305;22766;-77
2022/11/19 10:53:54;;;;;;;15.10;11.80;;;;;;;-0.89;87.36;96236.42;105167;1306;22560;-77
2022/11/19 10:56:34;;;;;;;15.30;10.90;;;;;;;-0.97;86.28;96234.39;105122;1298;23891;-78
2022/11/19 10:59:13;;;;;;;13.50;9.70;;;;;;;-1.13;85.07;96234.94;105211;1303;22458;-77
2022/11/19 11:01:47;;;;;;;14.20;10.10;;;;;;;-1.39;83.93;96229.14;105574;1296;22756;-78
2022/11/19 11:04:22;;;;;;;13.90;10.50;;;;;;;-1.53;83.77;96229.93;105443;1302;22546;-78
2022/11/19 11:06:57;;;;;;;15.50;11.00;;;;;;;-1.53;84.60;96229.17;105324;1303;23804;-78
2022/11/19 11:09:34;;;;;;;14.90;10.50;;;;;;;-1.52;84.59;96228.52;105230;1295;22477;-78
2022/11/19 11:15:14;;;;;;;13.90;10.30;;;;;;;-1.67;83.61;96232.06;105214;1306;22615;-77
2022/11/19 11:17:49;;;;;;;10.90;8.80;;;;;;;-1.81;83.12;96234.37;105153;1284;25427;-77
2022/11/19 11:20:27;;;;;;;14.30;9.80;;;;;;;-1.81;82.99;96225.72;105259;1284;26639;-78
2022/11/19 11:23:10;;;;;;;14.30;9.90;;;;;;;-1.78;83.03;96227.66;105200;1301;23298;-78
2022/11/19 11:25:50;;;;;;;14.60;10.40;;;;;;;-1.74;83.18;96230.59;105176;1306;24280;-78
2022/11/19 11:28:26;;;;;;;13.90;9.20;;;;;;;-1.73;82.68;96231.61;105037;1305;23947;-77
2022/11/19 11:30:59;;;;;;;13.30;9.90;;;;;;;-1.76;82.01;96235.88;105207;1283;22466;-77
2022/11/19 11:33:33;;;;;;;13.30;8.70;;;;;;;-1.80;81.94;96234.67;105173;1306;22467;-78
2022/11/19 11:36:10;;;;;;;12.90;8.80;;;;;;;-1.76;82.17;96239.80;105172;1306;22464;-77
2022/11/19 11:38:48;;;;;;;12.70;9.20;;;;;;;-1.90;81.12;96242.63;105284;1303;31522;-77
2022/11/19 11:41:21;;;;;;;11.60;8.00;;;;;;;-1.94;81.61;96245.98;105220;1306;25679;-77
2022/11/19 11:44:04;;;;;;;13.50;9.10;;;;;;;-1.97;81.24;96248.07;105267;1289;22615;-77
2022/11/19 11:46:48;;;;;;;13.00;9.30;;;;;;;-2.04;81.40;96246.82;105125;1297;24370;-77
2022/11/19 11:49:28;;;;;;;15.10;9.10;;;;;;;-2.13;80.80;96250.99;105228;1297;22464;-77
2022/11/19 11:52:19;;;;;;;12.70;8.90;;;;;;;-2.17;80.80;96249.12;105197;1298;24250;-77
2022/11/19 11:55:00;;;;;;;12.60;9.30;;;;;;;-2.15;81.23;96250.75;105166;1291;24065;-77
2022/11/19 11:57:31;;;;;;;;;;;;;;;-2.07;80.96;96250.88;105168;1286;24528;-77
2022/11/19 12:00:23;;;;;;;14.10;9.20;;;;;;;-2.03;80.95;96252.25;105236;1303;23289;-77
2022/11/19 12:03:07;;;;;;;13.60;8.70;;;;;;;-1.96;80.87;96253.73;105225;1303;22480;-77
2022/11/19 12:05:55;;;;;;;12.60;8.90;;;;;;;-1.96;79.87;96255.70;105189;1301;22491;-77
2022/11/19 12:08:45;;;;;;;10.50;7.80;;;;;;;-1.93;80.02;96264.88;104347;1306;1118432;-77